Time;durP1;ratioP1;P1;durP2;ratioP2;P2;SDS_P1;SDS_P2;PMS_P1;PMS_P2;Temp;Humidity;BMP_temperature;BMP_pressure;BME280_temperature;BME280_humidity;BME280_pressure;Samples;Min_cycle;Max_cycle;Signal;HPM_P1;HPM_P2
2024/04/17 00:00:33;;;;;;;6.27;6.03;;;9.10;32.50;;;;;;5408429;26;20482;-78
2024/04/17 00:02:59;;;;;;;7.07;6.80;;;9.00;34.50;;;;;;5420199;26;20268;-79
2024/04/17 00:05:25;;;;;;;6.33;6.13;;;8.80;33.30;;;;;;5420633;26;20233;-79
2024/04/17 00:07:51;;;;;;;6.47;6.27;;;8.60;34.30;;;;;;5420960;26;20268;-79
2024/04/17 00:10:16;;;;;;;5.70;5.60;;;8.50;34.70;;;;;;5420066;26;20907;-77
2024/04/17 00:12:42;;;;;;;6.50;6.30;;;8.40;35.70;;;;;;5416720;26;20775;-77
2024/04/17 00:15:07;;;;;;;5.90;5.70;;;8.40;36.60;;;;;;5419074;26;20237;-79
2024/04/17 00:17:33;;;;;;;6.23;6.03;;;8.50;36.10;;;;;;5420801;26;20229;-78
2024/04/17 00:19:58;;;;;;;6.20;6.00;;;8.40;35.60;;;;;;5417051;26;20574;-79
2024/04/17 00:22:24;;;;;;;6.43;6.23;;;8.30;36.50;;;;;;5408393;26;20233;-77
2024/04/17 00:24:49;;;;;;;6.30;6.10;;;8.30;37.20;;;;;;5391257;26;20288;-78
2024/04/17 00:27:15;;;;;;;6.10;5.90;;;8.20;36.40;;;;;;5405546;26;20241;-79
2024/04/17 00:29:40;;;;;;;6.10;5.90;;;8.20;37.60;;;;;;5364287;26;20588;-79
2024/04/17 00:32:07;;;;;;;6.10;5.90;;;8.10;38.80;;;;;;5396296;26;20238;-78
2024/04/17 00:34:32;;;;;;;6.07;5.87;;;8.10;38.50;;;;;;5402699;26;20654;-79
2024/04/17 00:36:58;;;;;;;6.30;6.10;;;8.00;39.00;;;;;;5405566;26;20475;-78
2024/04/17 00:39:25;;;;;;;6.10;5.90;;;8.00;40.00;;;;;;5400210;26;20230;-79
2024/04/17 00:41:51;;;;;;;6.00;5.80;;;7.90;40.40;;;;;;5414671;26;20233;-77
2024/04/17 00:44:17;;;;;;;6.27;6.07;;;8.00;40.90;;;;;;5401981;26;20467;-78
2024/04/17 00:46:43;;;;;;;6.33;6.13;;;7.90;40.80;;;;;;5413943;26;20225;-77
2024/04/17 00:49:09;;;;;;;5.80;5.60;;;7.90;40.80;;;;;;5366147;26;20764;-78
2024/04/17 00:51:36;;;;;;;6.80;6.50;;;8.10;41.40;;;;;;5413128;26;20527;-78
2024/04/17 00:54:02;;;;;;;6.43;6.23;;;8.30;40.70;;;;;;5414006;26;20466;-77
2024/04/17 00:56:28;;;;;;;6.40;6.20;;;8.30;39.00;;;;;;5411513;26;20455;-77
2024/04/17 00:58:53;;;;;;;7.10;6.87;;;8.30;40.30;;;;;;5417922;26;20503;-78
2024/04/17 01:01:19;;;;;;;6.30;6.10;;;8.30;40.20;;;;;;5406211;26;20226;-78
2024/04/17 01:03:44;;;;;;;6.77;6.50;;;8.30;39.20;;;;;;5405764;26;20241;-79
2024/04/17 01:06:10;;;;;;;6.30;6.10;;;8.40;40.10;;;;;;5417769;26;20237;-78
2024/04/17 01:08:35;;;;;;;6.37;6.07;;;8.50;38.20;;;;;;5403719;26;20976;-78
2024/04/17 01:11:01;;;;;;;6.13;5.93;;;8.50;38.40;;;;;;5412132;26;20748;-77
2024/04/17 01:13:27;;;;;;;5.90;5.70;;;8.40;39.00;;;;;;5419058;26;20275;-78
2024/04/17 01:15:55;;;;;;;6.30;6.10;;;8.40;40.00;;;;;;5413193;26;20463;-77
2024/04/17 01:18:21;;;;;;;5.93;5.60;;;8.40;40.50;;;;;;5414650;26;20523;-78
2024/04/17 01:20:46;;;;;;;6.43;6.23;;;8.40;39.70;;;;;;5400257;26;20525;-78
2024/04/17 01:23:12;;;;;;;6.60;6.33;;;8.40;38.70;;;;;;5381840;26;20464;-77
2024/04/17 01:25:37;;;;;;;6.50;6.30;;;8.50;39.00;;;;;;5414150;26;20228;-77
2024/04/17 01:28:03;;;;;;;6.83;6.53;;;8.40;37.80;;;;;;5419272;26;20276;-76
2024/04/17 01:30:28;;;;;;;6.60;6.40;;;8.50;38.70;;;;;;5417430;26;20340;-78
2024/04/17 01:32:54;;;;;;;7.00;6.70;;;8.30;37.30;;;;;;5405216;26;20237;-77
2024/04/17 01:35:19;;;;;;;6.50;6.30;;;8.20;38.50;;;;;;5397559;26;20277;-77
2024/04/17 01:37:45;;;;;;;7.17;6.67;;;8.20;39.90;;;;;;5380433;26;20277;-77
2024/04/17 01:40:10;;;;;;;6.40;6.20;;;8.10;40.80;;;;;;5416630;26;20604;-78
2024/04/17 01:42:36;;;;;;;5.80;5.60;;;8.00;40.50;;;;;;5382177;26;20267;-78
2024/04/17 01:45:01;;;;;;;6.10;5.90;;;8.00;40.10;;;;;;5388766;26;20268;-78
2024/04/17 01:47:27;;;;;;;5.93;5.73;;;8.20;41.10;;;;;;5380155;26;20266;-78
2024/04/17 01:49:52;;;;;;;7.00;6.70;;;8.30;40.10;;;;;;5401219;26;20241;-78
2024/04/17 01:52:18;;;;;;;6.13;5.93;;;8.30;40.30;;;;;;5417082;26;20628;-78
2024/04/17 01:54:44;;;;;;;6.60;6.30;;;8.50;39.80;;;;;;5385363;26;20224;-76
2024/04/17 01:57:09;;;;;;;6.47;6.27;;;8.60;39.00;;;;;;5412864;26;20271;-78
2024/04/17 01:59:35;;;;;;;6.90;6.60;;;8.70;39.50;;;;;;5379998;26;20441;-78
2024/04/17 02:02:00;;;;;;;6.90;6.70;;;9.00;38.50;;;;;;5406263;26;20232;-77
2024/04/17 02:04:26;;;;;;;7.03;6.73;;;9.00;36.80;;;;;;5401237;26;20299;-77
2024/04/17 02:06:51;;;;;;;7.50;7.20;;;8.80;37.40;;;;;;5412877;26;20575;-77
2024/04/17 02:09:17;;;;;;;7.03;6.83;;;8.60;38.40;;;;;;5416401;26;20280;-78
2024/04/17 02:11:42;;;;;;;6.97;6.77;;;8.60;39.10;;;;;;5416729;26;20326;-78
2024/04/17 02:14:08;;;;;;;6.60;6.40;;;8.50;39.00;;;;;;5377457;26;20233;-79
2024/04/17 02:16:33;;;;;;;7.10;6.80;;;8.50;39.40;;;;;;5410264;26;20237;-78
2024/04/17 02:18:59;;;;;;;7.27;7.07;;;8.50;39.40;;;;;;5350471;26;20296;-79
2024/04/17 02:21:24;;;;;;;6.97;6.70;;;8.60;40.00;;;;;;5395421;26;20746;-77
2024/04/17 02:23:50;;;;;;;7.13;6.83;;;8.60;38.40;;;;;;5385040;26;20269;-79
2024/04/17 02:26:15;;;;;;;6.60;6.40;;;8.60;38.60;;;;;;5361880;26;20442;-78
2024/04/17 02:28:41;;;;;;;7.07;6.87;;;8.50;39.20;;;;;;5411267;26;20457;-79
2024/04/17 02:31:06;;;;;;;7.47;7.17;;;8.50;40.10;;;;;;5409234;26;20273;-78
2024/04/17 02:33:33;;;;;;;6.17;5.97;;;8.40;39.50;;;;;;5408071;26;20741;-79
2024/04/17 02:35:58;;;;;;;7.23;7.03;;;8.30;39.40;;;;;;5410924;26;20347;-78
2024/04/17 02:38:24;;;;;;;6.70;6.50;;;8.30;39.80;;;;;;5407590;26;21022;-78
2024/04/17 02:40:49;;;;;;;6.90;6.60;;;8.20;39.80;;;;;;5404303;26;20238;-78
2024/04/17 02:43:15;;;;;;;6.90;6.70;;;8.20;40.50;;;;;;5374368;26;20237;-78
2024/04/17 02:45:40;;;;;;;6.77;6.57;;;8.40;41.20;;;;;;5379715;26;20617;-78
2024/04/17 02:48:06;;;;;;;6.20;6.00;;;8.40;40.20;;;;;;5377925;26;20242;-77
2024/04/17 02:50:32;;;;;;;6.90;6.70;;;8.60;39.40;;;;;;5408500;26;20249;-78
2024/04/17 02:52:58;;;;;;;7.33;7.13;;;8.50;38.30;;;;;;5418934;26;20519;-79
2024/04/17 02:55:23;;;;;;;6.60;6.40;;;8.40;37.70;;;;;;5416736;26;20229;-78
2024/04/17 02:57:49;;;;;;;6.70;6.50;;;8.30;39.20;;;;;;5419502;26;20733;-77
2024/04/17 03:00:17;;;;;;;6.60;6.30;;;8.60;38.70;;;;;;5405887;26;20345;-77
2024/04/17 03:02:43;;;;;;;6.70;6.50;;;8.60;39.00;;;;;;5405361;26;20728;-78
2024/04/17 03:05:08;;;;;;;7.70;7.40;;;8.40;37.50;;;;;;5408659;26;20542;-79
2024/04/17 03:07:34;;;;;;;6.53;6.33;;;8.30;37.20;;;;;;5417955;26;20226;-77
2024/04/17 03:09:59;;;;;;;6.37;6.17;;;8.30;38.20;;;;;;5418435;26;20225;-78
2024/04/17 03:12:25;;;;;;;6.33;6.13;;;8.50;37.90;;;;;;5417501;26;20236;-79
2024/04/17 03:14:50;;;;;;;6.63;6.43;;;8.70;36.40;;;;;;5414652;26;20583;-78
2024/04/17 03:17:16;;;;;;;6.77;6.57;;;8.70;36.30;;;;;;5407908;26;20280;-77
2024/04/17 03:19:41;;;;;;;6.23;6.03;;;8.90;35.70;;;;;;5400577;26;20226;-78
2024/04/17 03:22:09;;;;;;;6.23;6.03;;;9.10;33.50;;;;;;5408469;26;20276;-79
2024/04/17 03:24:34;;;;;;;6.60;6.40;;;9.30;31.90;;;;;;5412327;26;20230;-79
2024/04/17 03:27:00;;;;;;;7.17;6.87;;;9.40;31.80;;;;;;5404342;26;20470;-78
2024/04/17 03:29:25;;;;;;;8.00;7.70;;;9.40;30.10;;;;;;5382879;26;20624;-79
2024/04/17 03:31:51;;;;;;;8.43;8.13;;;9.40;29.20;;;;;;5400934;26;20235;-78
2024/04/17 03:34:16;;;;;;;8.30;8.00;;;9.40;29.80;;;;;;5416292;26;20272;-78
2024/04/17 03:36:42;;;;;;;8.30;8.00;;;9.40;29.80;;;;;;5405255;26;20276;-78
2024/04/17 03:39:07;;;;;;;8.10;7.80;;;9.50;30.30;;;;;;5388582;26;20276;-79
2024/04/17 03:41:33;;;;;;;8.93;8.63;;;9.50;30.90;;;;;;5413177;26;20238;-78
2024/04/17 03:43:58;;;;;;;8.83;8.43;;;9.60;31.00;;;;;;5401109;26;20373;-77
2024/04/17 03:46:24;;;;;;;8.60;8.30;;;9.70;30.00;;;;;;5384248;26;20725;-78
2024/04/17 03:48:49;;;;;;;9.17;8.87;;;9.80;29.60;;;;;;5416590;26;20264;-78
2024/04/17 03:51:15;;;;;;;8.90;8.50;;;9.80;29.00;;;;;;5378220;26;20241;-78
2024/04/17 03:53:40;;;;;;;9.20;8.90;;;9.90;29.70;;;;;;5411480;26;20237;-78
2024/04/17 03:56:06;;;;;;;8.37;8.07;;;9.70;29.00;;;;;;5379057;26;20242;-78
2024/04/17 03:58:31;;;;;;;9.70;9.20;;;9.60;30.20;;;;;;5364788;26;20237;-77
2024/04/17 04:00:57;;;;;;;9.70;9.40;;;9.60;29.90;;;;;;5406408;26;20261;-78
2024/04/17 04:03:22;;;;;;;8.77;8.47;;;9.60;30.10;;;;;;5400287;26;20229;-78
2024/04/17 04:05:48;;;;;;;9.03;8.73;;;9.70;29.90;;;;;;5413066;26;20736;-78
2024/04/17 04:08:13;;;;;;;9.80;9.40;;;9.80;29.60;;;;;;5414078;26;20630;-78
2024/04/17 04:10:39;;;;;;;10.03;9.63;;;9.80;29.40;;;;;;5402732;26;20242;-78
2024/04/17 04:13:05;;;;;;;9.70;9.30;;;9.80;30.00;;;;;;5401350;26;20763;-77
2024/04/17 04:15:30;;;;;;;9.53;9.07;;;9.80;29.40;;;;;;5417943;26;20229;-78
2024/04/17 04:17:56;;;;;;;11.00;10.60;;;9.90;29.10;;;;;;5377251;26;20625;-77
2024/04/17 04:20:21;;;;;;;10.67;10.17;;;9.50;30.50;;;;;;5385287;26;20307;-78
2024/04/17 04:22:47;;;;;;;11.73;11.23;;;9.10;31.10;;;;;;5402521;26;20321;-77
2024/04/17 04:25:13;;;;;;;10.77;10.27;;;8.70;32.90;;;;;;5407367;26;20225;-78
2024/04/17 04:27:38;;;;;;;10.23;9.73;;;8.70;34.20;;;;;;5416985;26;20225;-77
2024/04/17 04:30:04;;;;;;;10.03;9.70;;;8.80;33.10;;;;;;5417093;26;20232;-77
2024/04/17 04:32:29;;;;;;;10.53;10.07;;;8.40;33.90;;;;;;5417185;26;20284;-78
2024/04/17 04:34:55;;;;;;;9.90;9.50;;;8.30;35.90;;;;;;5415485;26;20467;-78
2024/04/17 04:37:23;;;;;;;10.43;10.03;;;8.10;37.50;;;;;;5405079;26;20229;-78
2024/04/17 04:39:49;;;;;;;10.50;10.10;;;8.00;38.10;;;;;;5415650;26;20776;-80
2024/04/17 04:42:14;;;;;;;10.63;10.20;;;7.80;38.40;;;;;;5416859;26;20474;-77
2024/04/17 04:44:40;;;;;;;9.77;9.37;;;7.70;39.50;;;;;;5403465;26;20275;-78
2024/04/17 04:47:05;;;;;;;9.63;9.23;;;7.90;40.40;;;;;;5384597;26;20233;-77
2024/04/17 04:49:31;;;;;;;10.20;9.80;;;7.90;39.20;;;;;;5417047;26;20233;-78
2024/04/17 04:51:57;;;;;;;9.00;8.60;;;8.10;39.90;;;;;;5402009;26;20231;-78
2024/04/17 04:54:22;;;;;;;10.00;9.40;;;8.40;38.60;;;;;;5413217;26;20613;-78
2024/04/17 04:56:50;;;;;;;9.53;9.23;;;8.60;37.40;;;;;;5411009;26;21089;-78
2024/04/17 04:59:17;;;;;;;9.03;8.67;;;8.70;36.00;;;;;;5416050;26;20233;-78
2024/04/17 05:01:42;;;;;;;9.80;9.40;;;8.60;36.10;;;;;;5384263;26;21062;-77
2024/04/17 05:04:08;;;;;;;8.87;8.57;;;8.40;34.40;;;;;;5416285;26;20466;-78
2024/04/17 05:06:34;;;;;;;9.87;9.47;;;8.40;35.70;;;;;;5416687;26;20276;-77
2024/04/17 05:09:00;;;;;;;9.70;9.30;;;8.30;36.20;;;;;;5383914;26;20707;-78
2024/04/17 05:11:25;;;;;;;9.30;9.00;;;8.30;36.10;;;;;;5417065;26;20466;-77
2024/04/17 05:13:51;;;;;;;9.67;9.27;;;8.20;36.10;;;;;;5386963;26;20548;-77
2024/04/17 05:16:16;;;;;;;10.10;9.70;;;8.30;37.00;;;;;;5424931;26;20229;-77
2024/04/17 05:18:42;;;;;;;9.30;8.90;;;8.20;37.40;;;;;;5421077;26;20338;-78
2024/04/17 05:21:07;;;;;;;9.43;9.03;;;8.10;38.20;;;;;;5413666;26;20282;-78
2024/04/17 05:23:33;;;;;;;8.80;8.40;;;8.10;38.50;;;;;;5416268;26;20269;-77
2024/04/17 05:25:58;;;;;;;8.90;8.60;;;8.10;39.70;;;;;;5408869;26;20284;-77
2024/04/17 05:28:24;;;;;;;9.70;9.30;;;8.00;39.00;;;;;;5368473;26;20550;-79
2024/04/17 05:30:57;;;;;;;10.00;9.63;;;8.00;40.00;;;;;;5371383;26;20229;-77
2024/04/17 05:33:22;;;;;;;10.03;9.73;;;8.00;40.10;;;;;;5383370;26;20237;-78
2024/04/17 05:35:48;;;;;;;10.50;10.10;;;7.80;39.80;;;;;;5378869;26;20698;-76
2024/04/17 05:38:13;;;;;;;12.10;11.40;;;7.80;40.20;;;;;;5411742;26;20402;-77
2024/04/17 05:40:44;;;;;;;11.70;11.10;;;7.80;40.80;;;;;;5415938;26;20232;-78
2024/04/17 05:43:09;;;;;;;11.53;11.00;;;7.80;41.20;;;;;;5384205;26;20268;-78
2024/04/17 05:45:35;;;;;;;11.53;11.03;;;7.80;42.20;;;;;;5378356;26;20504;-78
2024/04/17 05:48:00;;;;;;;11.67;11.07;;;7.80;42.20;;;;;;5413204;26;20724;-77
2024/04/17 05:50:26;;;;;;;13.77;13.10;;;7.90;42.20;;;;;;5360362;26;20250;-77
2024/04/17 05:52:51;;;;;;;12.50;11.90;;;8.20;41.00;;;;;;5379525;26;20280;-77
2024/04/17 05:55:17;;;;;;;11.53;11.03;;;8.60;38.40;;;;;;5380239;26;20234;-78
2024/04/17 05:57:42;;;;;;;12.63;11.77;;;8.80;37.30;;;;;;5356638;26;20325;-77
2024/04/17 06:00:09;;;;;;;12.57;11.67;;;9.00;35.90;;;;;;5386441;26;20265;-80
2024/04/17 06:02:35;;;;;;;12.73;12.10;;;9.10;34.90;;;;;;5378506;26;20283;-80
2024/04/17 06:05:00;;;;;;;12.53;11.90;;;9.30;33.90;;;;;;5382948;26;20472;-77
2024/04/17 06:07:26;;;;;;;13.13;12.43;;;9.40;33.40;;;;;;5381041;26;20231;-77
2024/04/17 06:09:51;;;;;;;13.43;12.63;;;9.40;31.90;;;;;;5380448;26;20230;-77
2024/04/17 06:12:17;;;;;;;14.00;13.30;;;9.40;31.90;;;;;;5379831;26;20277;-77
2024/04/17 06:14:42;;;;;;;14.27;13.57;;;9.50;32.00;;;;;;5379504;26;20650;-76
2024/04/17 06:17:08;;;;;;;13.50;12.90;;;9.50;31.60;;;;;;5398972;26;20229;-79
2024/04/17 06:19:33;;;;;;;13.90;13.20;;;9.50;32.00;;;;;;5416965;26;20283;-79
2024/04/17 06:22:00;;;;;;;14.43;13.73;;;9.50;32.00;;;;;;5416260;26;20568;-77
2024/04/17 06:24:25;;;;;;;14.77;14.07;;;9.60;32.10;;;;;;5361647;26;20242;-78
2024/04/17 06:26:51;;;;;;;13.73;13.13;;;9.60;31.60;;;;;;5355088;26;21110;-78
2024/04/17 06:29:16;;;;;;;13.77;13.17;;;9.70;31.50;;;;;;5408003;26;20240;-78
2024/04/17 06:31:42;;;;;;;15.10;14.30;;;9.70;32.10;;;;;;5415440;26;20270;-77
2024/04/17 06:34:07;;;;;;;15.00;14.30;;;9.70;31.10;;;;;;5417338;26;20221;-80
2024/04/17 06:36:33;;;;;;;14.03;13.40;;;9.80;30.60;;;;;;5382976;26;20234;-78
2024/04/17 06:39:00;;;;;;;14.47;13.77;;;9.80;30.90;;;;;;5386813;26;20584;-78
2024/04/17 06:41:26;;;;;;;14.77;14.00;;;9.80;31.40;;;;;;5385794;26;20241;-78
2024/04/17 06:43:59;;;;;;;13.30;12.57;;;9.70;32.40;;;;;;5385542;26;20467;-81
2024/04/17 06:46:24;;;;;;;14.10;13.20;;;9.70;33.80;;;;;;5385383;26;20229;-80
2024/04/17 06:48:54;;;;;;;14.07;13.37;;;9.60;33.30;;;;;;5386410;26;21085;-80
2024/04/17 06:51:30;;;;;;;14.27;13.53;;;9.60;35.20;;;;;;5419557;26;20736;-83
2024/04/17 06:54:03;;;;;;;14.13;13.43;;;9.70;33.70;;;;;;5387764;26;21005;-82
2024/04/17 06:56:29;;;;;;;12.30;11.70;;;9.70;32.60;;;;;;5350485;26;20464;-81
2024/04/17 06:58:57;;;;;;;13.17;12.57;;;9.80;31.70;;;;;;5352723;26;20516;-81
2024/04/17 07:01:28;;;;;;;12.97;12.27;;;9.80;32.10;;;;;;5374793;26;20233;-81
2024/04/17 07:04:47;;;;;;;11.97;11.40;;;9.90;31.70;;;;;;5388953;26;20476;-78
2024/04/17 07:07:13;;;;;;;13.80;12.90;;;9.90;30.50;;;;;;5411144;26;21052;-77
2024/04/17 07:09:39;;;;;;;11.97;11.37;;;9.90;30.90;;;;;;5358115;26;20482;-80
2024/04/17 07:12:05;;;;;;;13.40;12.70;;;9.90;30.70;;;;;;5401077;26;20238;-78
2024/04/17 07:14:41;;;;;;;12.33;11.83;;;9.90;31.20;;;;;;5383290;26;20475;-77
2024/04/17 07:17:07;;;;;;;12.00;11.50;;;9.90;31.20;;;;;;5418728;26;20508;-79
2024/04/17 07:20:20;;;;;;;10.33;9.83;;;9.80;30.60;;;;;;5386573;26;20474;-78
2024/04/17 07:23:23;;;;;;;11.60;11.00;;;9.80;30.20;;;;;;5390915;26;20938;-79
2024/04/17 07:25:49;;;;;;;11.43;10.83;;;9.70;30.00;;;;;;5405404;26;20548;-79
2024/04/17 07:28:15;;;;;;;12.07;11.37;;;9.70;30.30;;;;;;5385009;26;20455;-81
2024/04/17 07:30:53;;;;;;;11.27;10.77;;;9.70;30.30;;;;;;5384636;26;20475;-79
2024/04/17 07:33:19;;;;;;;10.70;10.30;;;9.70;30.00;;;;;;5380215;26;20237;-80
2024/04/17 07:35:44;;;;;;;9.63;9.23;;;9.70;29.40;;;;;;5380677;26;20480;-79
2024/04/17 07:38:10;;;;;;;10.60;10.17;;;9.70;29.70;;;;;;5349061;26;20259;-78
2024/04/17 07:40:35;;;;;;;10.47;9.97;;;9.60;31.00;;;;;;5379814;26;20234;-78
2024/04/17 07:43:02;;;;;;;10.40;10.00;;;9.40;31.90;;;;;;5352619;26;20256;-77
2024/04/17 07:45:27;;;;;;;11.70;11.20;;;9.50;31.70;;;;;;5416212;26;20279;-78
2024/04/17 07:47:53;;;;;;;11.50;10.90;;;9.50;31.40;;;;;;5378389;26;20460;-78
2024/04/17 07:50:18;;;;;;;11.80;11.20;;;9.50;32.40;;;;;;5380676;26;20234;-78
2024/04/17 07:52:44;;;;;;;10.67;10.17;;;9.60;32.10;;;;;;5349763;26;20230;-78
2024/04/17 07:55:09;;;;;;;11.67;11.17;;;9.50;32.70;;;;;;5349605;26;20604;-80
2024/04/17 07:57:35;;;;;;;10.30;9.90;;;9.20;34.80;;;;;;5349590;26;20230;-79
2024/04/17 08:00:01;;;;;;;11.00;10.50;;;8.90;36.00;;;;;;5349038;26;20601;-78
2024/04/17 08:02:26;;;;;;;11.33;10.83;;;9.10;35.30;;;;;;5355605;26;20248;-78
2024/04/17 08:04:52;;;;;;;10.70;10.20;;;9.20;34.50;;;;;;5366745;26;20535;-79
2024/04/17 08:07:17;;;;;;;13.20;12.60;;;9.40;33.60;;;;;;5369728;26;20233;-80
2024/04/17 08:09:43;;;;;;;12.83;12.23;;;9.50;32.00;;;;;;5416239;26;20275;-80
2024/04/17 08:12:08;;;;;;;11.67;11.13;;;9.50;32.00;;;;;;5399144;26;20285;-78
2024/04/17 08:14:34;;;;;;;12.37;11.77;;;9.40;32.40;;;;;;5359309;26;20272;-78
2024/04/17 08:16:59;;;;;;;12.40;11.80;;;9.30;32.60;;;;;;5355963;26;20261;-79
2024/04/17 08:19:25;;;;;;;12.57;11.97;;;9.40;32.50;;;;;;5384021;26;20230;-79
2024/04/17 08:21:51;;;;;;;11.57;11.07;;;9.40;32.70;;;;;;5353202;26;20345;-78
2024/04/17 08:24:16;;;;;;;13.10;12.50;;;9.50;33.20;;;;;;5353487;26;20335;-78
2024/04/17 08:26:42;;;;;;;14.43;13.70;;;9.30;34.30;;;;;;5366591;26;20250;-78
2024/04/17 08:29:14;;;;;;;15.53;14.33;;;9.40;33.80;;;;;;5381757;26;20265;-81
2024/04/17 08:31:39;;;;;;;14.53;13.83;;;9.30;34.40;;;;;;5407465;26;20229;-80
2024/04/17 08:34:07;;;;;;;13.63;12.93;;;9.30;34.50;;;;;;5382043;26;20605;-79
2024/04/17 08:36:33;;;;;;;13.67;12.93;;;9.30;35.50;;;;;;5362191;26;20265;-78
2024/04/17 08:38:58;;;;;;;15.27;14.47;;;9.40;33.80;;;;;;5365053;26;20470;-79
2024/04/17 08:41:28;;;;;;;13.90;13.20;;;9.40;35.30;;;;;;5403515;26;20233;-80
2024/04/17 08:43:59;;;;;;;14.47;13.67;;;9.50;35.20;;;;;;5372361;26;20432;-79
2024/04/17 08:46:27;;;;;;;13.70;12.60;;;9.70;34.60;;;;;;5405433;26;20447;-80
2024/04/17 08:48:54;;;;;;;14.20;13.50;;;9.70;33.90;;;;;;5388331;26;20471;-79
2024/04/17 08:51:20;;;;;;;14.27;13.57;;;9.80;32.60;;;;;;5357152;26;20481;-79
2024/04/17 08:53:46;;;;;;;14.00;13.10;;;9.80;32.30;;;;;;5411888;26;20471;-79
2024/04/17 08:56:13;;;;;;;13.30;12.70;;;9.90;32.10;;;;;;5358423;26;20506;-79
2024/04/17 08:58:41;;;;;;;12.77;12.03;;;9.80;32.30;;;;;;5392844;26;20242;-80
2024/04/17 09:01:09;;;;;;;13.70;13.00;;;9.90;30.10;;;;;;5383893;26;20533;-78
2024/04/17 09:03:38;;;;;;;14.27;13.57;;;9.90;29.40;;;;;;5393665;26;20460;-78
2024/04/17 09:06:04;;;;;;;13.67;12.87;;;9.80;30.50;;;;;;5381285;26;20518;-78
2024/04/17 09:08:30;;;;;;;14.10;13.30;;;9.90;31.10;;;;;;5350619;26;21007;-82
2024/04/17 09:10:56;;;;;;;13.70;13.10;;;9.80;30.40;;;;;;5394971;26;20466;-80
2024/04/17 09:13:22;;;;;;;13.27;12.67;;;9.70;30.00;;;;;;5396677;26;20274;-80
2024/04/17 09:15:47;;;;;;;12.63;11.83;;;9.50;31.80;;;;;;5382557;26;20456;-80
2024/04/17 09:18:13;;;;;;;11.93;11.23;;;9.50;30.60;;;;;;5354927;26;20290;-79
2024/04/17 09:20:44;;;;;;;11.80;11.23;;;9.50;29.60;;;;;;5407358;26;20604;-80
2024/04/17 09:23:17;;;;;;;12.20;11.50;;;9.40;30.00;;;;;;5384210;26;20241;-80
2024/04/17 09:25:44;;;;;;;12.00;11.50;;;9.30;30.50;;;;;;5362360;26;21106;-82
2024/04/17 09:28:15;;;;;;;11.93;11.33;;;9.30;30.80;;;;;;5382626;26;20460;-79
2024/04/17 09:31:05;;;;;;;13.80;13.00;;;9.20;32.20;;;;;;5360625;26;20900;-81
2024/04/17 09:33:31;;;;;;;12.50;11.80;;;9.30;31.40;;;;;;5346564;26;20468;-79
2024/04/17 09:36:01;;;;;;;11.83;11.20;;;9.30;31.10;;;;;;5351382;26;20472;-81
2024/04/17 09:38:29;;;;;;;11.93;11.43;;;9.30;30.00;;;;;;5383428;26;20661;-79
2024/04/17 09:41:04;;;;;;;14.37;13.47;;;9.30;28.60;;;;;;5396359;26;20464;-78
2024/04/17 09:43:29;;;;;;;17.17;16.07;;;9.20;29.10;;;;;;5351433;26;20472;-79
2024/04/17 09:46:19;;;;;;;14.73;13.93;;;9.10;30.00;;;;;;5410337;26;20941;-81
2024/04/17 09:48:54;;;;;;;16.90;15.50;;;9.10;31.10;;;;;;5366111;26;21000;-81
2024/04/17 09:51:28;;;;;;;12.63;12.13;;;9.10;31.70;;;;;;5379075;26;20527;-79
2024/04/17 09:54:25;;;;;;;16.60;15.60;;;9.00;33.70;;;;;;5419090;26;20459;-83
2024/04/17 09:56:57;;;;;;;19.47;17.70;;;9.00;34.70;;;;;;5371937;26;20548;-84
2024/04/17 09:59:33;;;;;;;16.20;15.13;;;9.10;32.70;;;;;;5417033;26;20459;-81
2024/04/17 10:02:14;;;;;;;16.83;15.70;;;9.10;31.70;;;;;;5420847;21;20504;-85
2024/04/17 10:04:43;;;;;;;16.40;15.40;;;9.20;32.50;;;;;;5417086;26;20467;-80
2024/04/17 10:07:17;;;;;;;12.70;12.10;;;9.20;33.90;;;;;;5389000;26;20471;-81
2024/04/17 10:09:50;;;;;;;14.87;14.10;;;9.30;32.50;;;;;;5364732;26;20467;-80
2024/04/17 10:12:26;;;;;;;12.50;11.77;;;9.30;31.40;;;;;;5400822;26;20477;-80
2024/04/17 10:14:53;;;;;;;16.73;15.73;;;9.40;30.00;;;;;;5405799;26;20459;-81
2024/04/17 10:17:19;;;;;;;14.97;13.97;;;9.50;30.00;;;;;;5405528;26;20457;-77
2024/04/17 10:19:51;;;;;;;13.83;13.03;;;9.50;29.30;;;;;;5448578;26;20538;-80
2024/04/17 10:22:17;;;;;;;21.90;20.13;;;9.50;29.20;;;;;;5416685;26;20354;-78
2024/04/17 10:24:43;;;;;;;14.07;13.27;;;9.50;30.00;;;;;;5448070;26;20453;-79
2024/04/17 10:27:21;;;;;;;13.97;12.93;;;9.60;30.50;;;;;;5455330;26;20888;-79
2024/04/17 10:29:47;;;;;;;13.57;12.90;;;9.60;30.60;;;;;;5431897;26;20228;-81
2024/04/17 10:32:17;;;;;;;15.73;14.80;;;9.70;30.70;;;;;;5410217;26;20593;-81
2024/04/17 10:34:44;;;;;;;16.63;15.63;;;9.50;32.20;;;;;;5419071;26;20670;-80
2024/04/17 10:37:11;;;;;;;15.47;14.47;;;9.60;32.10;;;;;;5424655;26;20461;-80
2024/04/17 10:39:38;;;;;;;16.57;15.67;;;9.70;32.20;;;;;;5451500;26;20458;-81
2024/04/17 10:42:08;;;;;;;14.80;14.03;;;9.70;33.20;;;;;;5424520;26;20564;-79
2024/04/17 10:44:48;;;;;;;17.70;16.60;;;9.80;32.30;;;;;;5406811;26;20591;-80
2024/04/17 10:47:28;;;;;;;22.80;21.40;;;9.90;30.70;;;;;;5413950;26;20466;-81
2024/04/17 10:49:58;;;;;;;18.77;17.70;;;10.10;30.40;;;;;;5424080;26;20473;-81
2024/04/17 10:52:25;;;;;;;16.20;15.33;;;10.00;29.50;;;;;;5409312;26;20963;-81
2024/04/17 10:54:53;;;;;;;18.47;17.43;;;10.10;28.50;;;;;;5412082;26;20600;-81
2024/04/17 10:57:20;;;;;;;16.30;15.40;;;10.00;30.10;;;;;;5452696;26;20456;-81
2024/04/17 10:59:50;;;;;;;17.10;15.70;;;10.00;31.50;;;;;;5420570;26;20469;-80
2024/04/17 11:02:16;;;;;;;18.20;17.03;;;9.90;31.20;;;;;;5421685;26;20509;-79
2024/04/17 11:04:43;;;;;;;16.30;15.30;;;9.80;31.20;;;;;;5412883;26;20469;-80
2024/04/17 11:07:14;;;;;;;18.10;17.00;;;9.80;31.40;;;;;;5409273;26;20467;-80
2024/04/17 11:09:47;;;;;;;17.50;16.40;;;9.80;30.70;;;;;;5408770;26;20469;-79
2024/04/17 11:12:15;;;;;;;13.63;13.00;;;10.00;30.00;;;;;;5422014;26;20526;-82
2024/04/17 11:14:40;;;;;;;15.53;14.63;;;10.10;29.50;;;;;;5423408;26;20474;-79
2024/04/17 11:17:08;;;;;;;15.70;14.70;;;10.20;26.50;;;;;;5443080;26;20528;-80
2024/04/17 11:19:47;;;;;;;14.90;13.90;;;10.30;27.40;;;;;;5422773;26;20513;-81
2024/04/17 11:22:15;;;;;;;16.40;15.33;;;10.50;26.10;;;;;;5424959;26;20833;-82
2024/04/17 11:24:48;;;;;;;15.30;13.90;;;10.50;26.30;;;;;;5424048;26;20504;-81
2024/04/17 11:27:20;;;;;;;14.07;13.37;;;10.50;25.20;;;;;;5391281;26;20839;-81
2024/04/17 11:29:48;;;;;;;14.23;13.23;;;10.40;25.40;;;;;;5411063;26;20522;-79
2024/04/17 11:33:09;;;;;;;12.83;12.03;;;10.30;24.30;;;;;;5422864;26;20479;-82
2024/04/17 11:36:34;;;;;;;12.03;11.40;;;10.30;23.60;;;;;;5177213;27;20465;-81
2024/04/17 11:39:03;;;;;;;13.83;13.13;;;10.20;24.50;;;;;;5307278;26;20471;-83
2024/04/17 11:41:29;;;;;;;12.20;11.50;;;10.10;27.20;;;;;;5392401;26;20512;-80
2024/04/17 11:44:20;;;;;;;11.70;11.00;;;10.20;27.00;;;;;;5408345;26;20820;-81
2024/04/17 11:46:46;;;;;;;12.27;11.60;;;10.30;26.30;;;;;;5387213;26;20541;-82
2024/04/17 11:49:12;;;;;;;12.70;12.00;;;10.40;25.00;;;;;;5443311;26;20457;-78
2024/04/17 11:51:37;;;;;;;12.70;11.90;;;10.40;25.40;;;;;;5455261;26;20445;-78
2024/04/17 11:54:03;;;;;;;13.70;12.67;;;10.10;27.50;;;;;;5421422;26;20231;-79
2024/04/17 11:56:29;;;;;;;15.07;14.07;;;10.10;29.60;;;;;;5455774;26;20289;-81
2024/04/17 11:58:55;;;;;;;14.00;13.30;;;10.00;28.80;;;;;;5396902;26;20498;-79
2024/04/17 12:01:21;;;;;;;15.67;14.77;;;10.00;30.90;;;;;;5419618;26;20469;-80
2024/04/17 12:03:46;;;;;;;15.37;14.27;;;10.00;28.80;;;;;;5418218;26;20236;-82
2024/04/17 12:06:12;;;;;;;13.13;11.97;;;9.90;28.60;;;;;;5414408;26;20252;-81
2024/04/17 12:08:38;;;;;;;13.20;12.40;;;9.90;28.70;;;;;;5398033;26;20259;-80
2024/04/17 12:11:19;;;;;;;13.70;12.60;;;10.10;27.00;;;;;;5422105;26;20541;-81
2024/04/17 12:13:45;;;;;;;12.90;12.00;;;10.30;27.40;;;;;;5422800;26;20255;-79
2024/04/17 12:16:10;;;;;;;12.60;11.80;;;10.40;27.60;;;;;;5407974;26;20451;-81
2024/04/17 12:18:37;;;;;;;12.53;11.83;;;10.40;26.10;;;;;;5406716;26;20232;-85
2024/04/17 12:21:02;;;;;;;12.20;11.47;;;10.60;25.40;;;;;;5438861;26;20290;-78
2024/04/17 12:23:28;;;;;;;12.60;11.73;;;10.70;24.50;;;;;;5419298;26;20516;-79
2024/04/17 12:28:41;;;;;;;11.70;10.90;;;11.00;22.90;;;;;;5427732;26;20259;-81
2024/04/17 12:31:06;;;;;;;10.70;9.90;;;11.00;21.60;;;;;;5444251;26;20462;-80
2024/04/17 12:33:32;;;;;;;9.40;8.90;;;11.00;18.20;;;;;;5437115;26;20510;-80
2024/04/17 12:35:57;;;;;;;8.40;8.10;;;10.90;16.60;;;;;;5412343;26;20233;-80
2024/04/17 12:38:23;;;;;;;9.40;8.80;;;10.90;16.00;;;;;;5414323;26;20240;-81
2024/04/17 12:40:48;;;;;;;9.60;9.10;;;10.90;15.50;;;;;;5422214;26;20240;-80
2024/04/17 12:43:15;;;;;;;10.10;9.57;;;10.90;16.20;;;;;;5425691;26;20572;-81
2024/04/17 12:45:41;;;;;;;9.40;8.73;;;10.80;16.10;;;;;;5456249;26;20263;-80
2024/04/17 12:48:26;;;;;;;8.77;8.27;;;10.80;17.20;;;;;;5394262;26;20453;-78